sensor_id;sensor_type;location;lat;lon;timestamp;P1;durP1;ratioP1;P2;durP2;ratioP2
28427;SDS011;15662;49.128;8.520;2023-11-19T00:01:14;0.60;;;0.60;;
28427;SDS011;15662;49.128;8.520;2023-11-19T00:03:42;1.23;;;0.70;;
28427;SDS011;15662;49.128;8.520;2023-11-19T00:06:11;1.23;;;0.70;;
28427;SDS011;15662;49.128;8.520;2023-11-19T00:08:38;0.60;;;0.60;;
28427;SDS011;15662;49.128;8.520;2023-11-19T00:11:06;0.63;;;0.60;;
28427;SDS011;15662;49.128;8.520;2023-11-19T00:13:34;1.25;;;0.60;;
28427;SDS011;15662;49.128;8.520;2023-11-19T00:16:02;0.50;;;0.50;;
28427;SDS011;15662;49.128;8.520;2023-11-19T00:18:31;1.95;;;0.70;;
28427;SDS011;15662;49.128;8.520;2023-11-19T00:20:59;0.50;;;0.50;;
28427;SDS011;15662;49.128;8.520;2023-11-19T00:23:29;0.55;;;0.40;;
28427;SDS011;15662;49.128;8.520;2023-11-19T00:25:56;0.85;;;0.60;;
28427;SDS011;15662;49.128;8.520;2023-11-19T00:28:24;0.88;;;0.63;;
28427;SDS011;15662;49.128;8.520;2023-11-19T00:30:52;0.70;;;0.50;;
28427;SDS011;15662;49.128;8.520;2023-11-19T00:33:20;2.05;;;0.60;;
28427;SDS011;15662;49.128;8.520;2023-11-19T00:35:48;0.85;;;0.60;;
28427;SDS011;15662;49.128;8.520;2023-11-19T00:38:16;0.65;;;0.40;;
28427;SDS011;15662;49.128;8.520;2023-11-19T00:40:44;0.50;;;0.45;;
28427;SDS011;15662;49.128;8.520;2023-11-19T00:43:12;0.50;;;0.50;;
28427;SDS011;15662;49.128;8.520;2023-11-19T00:45:40;0.43;;;0.40;;
28427;SDS011;15662;49.128;8.520;2023-11-19T00:48:08;0.50;;;0.50;;
28427;SDS011;15662;49.128;8.520;2023-11-19T00:50:36;0.50;;;0.50;;
28427;SDS011;15662;49.128;8.520;2023-11-19T00:53:05;0.57;;;0.40;;
28427;SDS011;15662;49.128;8.520;2023-11-19T00:55:33;0.40;;;0.40;;
28427;SDS011;15662;49.128;8.520;2023-11-19T00:58:01;0.50;;;0.50;;
28427;SDS011;15662;49.128;8.520;2023-11-19T01:00:30;1.27;;;0.50;;
28427;SDS011;15662;49.128;8.520;2023-11-19T01:02:59;0.50;;;0.50;;
28427;SDS011;15662;49.128;8.520;2023-11-19T01:05:27;0.80;;;0.50;;
28427;SDS011;15662;49.128;8.520;2023-11-19T01:07:55;0.80;;;0.50;;
28427;SDS011;15662;49.128;8.520;2023-11-19T01:10:23;0.47;;;0.45;;
28427;SDS011;15662;49.128;8.520;2023-11-19T01:12:52;1.33;;;0.40;;
28427;SDS011;15662;49.128;8.520;2023-11-19T01:15:21;0.40;;;0.40;;
28427;SDS011;15662;49.128;8.520;2023-11-19T01:17:52;0.50;;;0.50;;
28427;SDS011;15662;49.128;8.520;2023-11-19T01:20:20;0.82;;;0.60;;
28427;SDS011;15662;49.128;8.520;2023-11-19T01:22:49;0.70;;;0.40;;
28427;SDS011;15662;49.128;8.520;2023-11-19T01:25:18;0.55;;;0.50;;
28427;SDS011;15662;49.128;8.520;2023-11-19T01:27:46;0.40;;;0.40;;
28427;SDS011;15662;49.128;8.520;2023-11-19T01:30:14;0.68;;;0.40;;
28427;SDS011;15662;49.128;8.520;2023-11-19T01:32:42;0.40;;;0.40;;
28427;SDS011;15662;49.128;8.520;2023-11-19T01:35:10;0.95;;;0.43;;
28427;SDS011;15662;49.128;8.520;2023-11-19T01:37:38;0.50;;;0.50;;
28427;SDS011;15662;49.128;8.520;2023-11-19T01:40:06;0.50;;;0.50;;
28427;SDS011;15662;49.128;8.520;2023-11-19T01:42:37;0.30;;;0.30;;
28427;SDS011;15662;49.128;8.520;2023-11-19T01:45:06;0.63;;;0.30;;
28427;SDS011;15662;49.128;8.520;2023-11-19T01:47:36;0.50;;;0.40;;
28427;SDS011;15662;49.128;8.520;2023-11-19T01:50:06;0.50;;;0.50;;
28427;SDS011;15662;49.128;8.520;2023-11-19T01:52:35;0.50;;;0.50;;
28427;SDS011;15662;49.128;8.520;2023-11-19T01:55:04;0.40;;;0.40;;
28427;SDS011;15662;49.128;8.520;2023-11-19T01:57:36;2.35;;;0.40;;
28427;SDS011;15662;49.128;8.520;2023-11-19T02:00:06;0.63;;;0.43;;
28427;SDS011;15662;49.128;8.520;2023-11-19T02:02:43;0.63;;;0.40;;
28427;SDS011;15662;49.128;8.520;2023-11-19T02:05:13;0.40;;;0.40;;
28427;SDS011;15662;49.128;8.520;2023-11-19T02:07:41;0.40;;;0.40;;
28427;SDS011;15662;49.128;8.520;2023-11-19T02:10:09;0.68;;;0.40;;
28427;SDS011;15662;49.128;8.520;2023-11-19T02:12:41;0.40;;;0.30;;
28427;SDS011;15662;49.128;8.520;2023-11-19T02:15:10;0.40;;;0.30;;
28427;SDS011;15662;49.128;8.520;2023-11-19T02:17:38;0.70;;;0.40;;
28427;SDS011;15662;49.128;8.520;2023-11-19T02:20:06;0.45;;;0.35;;
28427;SDS011;15662;49.128;8.520;2023-11-19T02:22:38;0.40;;;0.40;;
28427;SDS011;15662;49.128;8.520;2023-11-19T02:25:25;0.43;;;0.40;;
28427;SDS011;15662;49.128;8.520;2023-11-19T02:27:59;0.63;;;0.40;;
28427;SDS011;15662;49.128;8.520;2023-11-19T02:30:29;1.13;;;0.40;;
28427;SDS011;15662;49.128;8.520;2023-11-19T02:32:56;0.50;;;0.40;;
28427;SDS011;15662;49.128;8.520;2023-11-19T02:35:32;0.73;;;0.65;;
28427;SDS011;15662;49.128;8.520;2023-11-19T02:38:00;0.50;;;0.50;;
28427;SDS011;15662;49.128;8.520;2023-11-19T02:40:30;0.35;;;0.35;;
28427;SDS011;15662;49.128;8.520;2023-11-19T02:42:58;2.45;;;0.40;;
28427;SDS011;15662;49.128;8.520;2023-11-19T02:45:27;0.70;;;0.47;;
28427;SDS011;15662;49.128;8.520;2023-11-19T02:47:58;0.40;;;0.40;;
28427;SDS011;15662;49.128;8.520;2023-11-19T02:50:28;2.20;;;0.65;;
28427;SDS011;15662;49.128;8.520;2023-11-19T02:52:56;0.40;;;0.40;;
28427;SDS011;15662;49.128;8.520;2023-11-19T02:55:24;0.40;;;0.40;;
28427;SDS011;15662;49.128;8.520;2023-11-19T02:57:52;0.43;;;0.43;;
28427;SDS011;15662;49.128;8.520;2023-11-19T03:00:21;1.27;;;0.50;;
28427;SDS011;15662;49.128;8.520;2023-11-19T03:03:01;0.40;;;0.40;;
28427;SDS011;15662;49.128;8.520;2023-11-19T03:05:47;0.50;;;0.50;;
28427;SDS011;15662;49.128;8.520;2023-11-19T03:08:15;0.50;;;0.28;;
28427;SDS011;15662;49.128;8.520;2023-11-19T03:10:46;0.60;;;0.60;;
28427;SDS011;15662;49.128;8.520;2023-11-19T03:13:14;1.23;;;0.50;;
28427;SDS011;15662;49.128;8.520;2023-11-19T03:15:42;0.50;;;0.50;;
28427;SDS011;15662;49.128;8.520;2023-11-19T03:18:10;0.40;;;0.40;;
28427;SDS011;15662;49.128;8.520;2023-11-19T03:20:38;0.40;;;0.40;;
28427;SDS011;15662;49.128;8.520;2023-11-19T03:23:06;0.40;;;0.40;;
28427;SDS011;15662;49.128;8.520;2023-11-19T03:25:34;0.82;;;0.40;;
28427;SDS011;15662;49.128;8.520;2023-11-19T03:28:03;0.30;;;0.30;;
28427;SDS011;15662;49.128;8.520;2023-11-19T03:30:32;0.50;;;0.45;;
28427;SDS011;15662;49.128;8.520;2023-11-19T03:33:01;0.35;;;0.35;;
28427;SDS011;15662;49.128;8.520;2023-11-19T03:35:29;0.50;;;0.50;;
28427;SDS011;15662;49.128;8.520;2023-11-19T03:37:57;0.50;;;0.50;;
28427;SDS011;15662;49.128;8.520;2023-11-19T03:40:25;0.63;;;0.40;;
28427;SDS011;15662;49.128;8.520;2023-11-19T03:42:53;0.40;;;0.40;;
28427;SDS011;15662;49.128;8.520;2023-11-19T03:45:23;0.30;;;0.30;;
28427;SDS011;15662;49.128;8.520;2023-11-19T03:47:51;0.40;;;0.40;;
28427;SDS011;15662;49.128;8.520;2023-11-19T03:50:19;0.45;;;0.45;;
28427;SDS011;15662;49.128;8.520;2023-11-19T03:52:47;0.40;;;0.40;;
28427;SDS011;15662;49.128;8.520;2023-11-19T03:55:16;0.47;;;0.47;;
28427;SDS011;15662;49.128;8.520;2023-11-19T03:57:44;0.50;;;0.50;;
28427;SDS011;15662;49.128;8.520;2023-11-19T04:00:14;0.47;;;0.40;;
28427;SDS011;15662;49.128;8.520;2023-11-19T04:02:42;0.40;;;0.40;;
28427;SDS011;15662;49.128;8.520;2023-11-19T04:05:10;0.98;;;0.70;;
28427;SDS011;15662;49.128;8.520;2023-11-19T04:07:38;0.50;;;0.50;;
28427;SDS011;15662;49.128;8.520;2023-11-19T04:10:06;0.88;;;0.70;;
28427;SDS011;15662;49.128;8.520;2023-11-19T04:12:35;0.90;;;0.60;;
28427;SDS011;15662;49.128;8.520;2023-11-19T04:15:03;0.50;;;0.50;;
28427;SDS011;15662;49.128;8.520;2023-11-19T04:17:32;0.77;;;0.70;;
28427;SDS011;15662;49.128;8.520;2023-11-19T04:20:00;0.68;;;0.68;;
28427;SDS011;15662;49.128;8.520;2023-11-19T04:22:28;0.47;;;0.40;;
28427;SDS011;15662;49.128;8.520;2023-11-19T04:24:55;1.75;;;0.57;;
28427;SDS011;15662;49.128;8.520;2023-11-19T04:27:23;1.77;;;0.50;;
28427;SDS011;15662;49.128;8.520;2023-11-19T04:29:51;0.98;;;0.60;;
28427;SDS011;15662;49.128;8.520;2023-11-19T04:32:19;0.68;;;0.68;;
28427;SDS011;15662;49.128;8.520;2023-11-19T04:34:49;0.68;;;0.50;;
28427;SDS011;15662;49.128;8.520;2023-11-19T04:37:17;0.57;;;0.57;;
28427;SDS011;15662;49.128;8.520;2023-11-19T04:39:44;2.00;;;0.75;;
28427;SDS011;15662;49.128;8.520;2023-11-19T04:42:13;1.60;;;0.50;;
28427;SDS011;15662;49.128;8.520;2023-11-19T04:44:44;0.40;;;0.38;;
28427;SDS011;15662;49.128;8.520;2023-11-19T04:47:12;0.73;;;0.60;;
28427;SDS011;15662;49.128;8.520;2023-11-19T04:49:41;0.60;;;0.60;;
28427;SDS011;15662;49.128;8.520;2023-11-19T04:52:10;0.60;;;0.60;;
28427;SDS011;15662;49.128;8.520;2023-11-19T04:54:45;0.40;;;0.40;;
28427;SDS011;15662;49.128;8.520;2023-11-19T04:57:13;0.60;;;0.60;;
28427;SDS011;15662;49.128;8.520;2023-11-19T04:59:41;0.80;;;0.70;;
28427;SDS011;15662;49.128;8.520;2023-11-19T05:02:09;2.13;;;0.50;;
28427;SDS011;15662;49.128;8.520;2023-11-19T05:04:37;0.50;;;0.50;;
28427;SDS011;15662;49.128;8.520;2023-11-19T05:07:05;0.75;;;0.50;;
28427;SDS011;15662;49.128;8.520;2023-11-19T05:09:34;0.52;;;0.50;;
28427;SDS011;15662;49.128;8.520;2023-11-19T05:12:02;0.70;;;0.47;;
28427;SDS011;15662;49.128;8.520;2023-11-19T05:14:30;0.52;;;0.52;;
28427;SDS011;15662;49.128;8.520;2023-11-19T05:16:57;0.50;;;0.40;;
28427;SDS011;15662;49.128;8.520;2023-11-19T05:19:25;0.80;;;0.60;;
28427;SDS011;15662;49.128;8.520;2023-11-19T05:21:53;1.35;;;0.60;;
28427;SDS011;15662;49.128;8.520;2023-11-19T05:24:21;2.25;;;0.50;;
28427;SDS011;15662;49.128;8.520;2023-11-19T05:26:48;0.60;;;0.60;;
28427;SDS011;15662;49.128;8.520;2023-11-19T05:29:17;0.40;;;0.40;;
28427;SDS011;15662;49.128;8.520;2023-11-19T05:31:45;0.40;;;0.40;;
28427;SDS011;15662;49.128;8.520;2023-11-19T05:34:14;0.50;;;0.50;;
28427;SDS011;15662;49.128;8.520;2023-11-19T05:36:42;0.52;;;0.50;;
28427;SDS011;15662;49.128;8.520;2023-11-19T05:39:10;1.10;;;0.50;;
28427;SDS011;15662;49.128;8.520;2023-11-19T05:41:38;0.90;;;0.70;;
28427;SDS011;15662;49.128;8.520;2023-11-19T05:44:06;0.65;;;0.40;;
28427;SDS011;15662;49.128;8.520;2023-11-19T05:46:34;1.45;;;0.40;;
28427;SDS011;15662;49.128;8.520;2023-11-19T05:49:07;0.55;;;0.43;;
28427;SDS011;15662;49.128;8.520;2023-11-19T05:51:36;1.38;;;0.43;;
28427;SDS011;15662;49.128;8.520;2023-11-19T05:54:08;0.40;;;0.40;;
28427;SDS011;15662;49.128;8.520;2023-11-19T05:56:37;0.77;;;0.40;;
28427;SDS011;15662;49.128;8.520;2023-11-19T05:59:05;1.35;;;0.40;;
28427;SDS011;15662;49.128;8.520;2023-11-19T06:01:41;0.40;;;0.40;;
28427;SDS011;15662;49.128;8.520;2023-11-19T06:04:09;0.45;;;0.40;;
28427;SDS011;15662;49.128;8.520;2023-11-19T06:06:38;3.40;;;0.40;;
28427;SDS011;15662;49.128;8.520;2023-11-19T06:09:07;1.25;;;0.50;;
28427;SDS011;15662;49.128;8.520;2023-11-19T06:11:40;0.60;;;0.40;;
28427;SDS011;15662;49.128;8.520;2023-11-19T06:14:08;0.38;;;0.38;;
28427;SDS011;15662;49.128;8.520;2023-11-19T06:16:35;0.30;;;0.30;;
28427;SDS011;15662;49.128;8.520;2023-11-19T06:19:04;0.30;;;0.30;;
28427;SDS011;15662;49.128;8.520;2023-11-19T06:21:32;0.30;;;0.30;;
28427;SDS011;15662;49.128;8.520;2023-11-19T06:23:59;0.22;;;0.22;;
28427;SDS011;15662;49.128;8.520;2023-11-19T06:26:27;0.30;;;0.30;;
28427;SDS011;15662;49.128;8.520;2023-11-19T06:28:55;0.20;;;0.20;;
28427;SDS011;15662;49.128;8.520;2023-11-19T06:31:23;0.63;;;0.40;;
28427;SDS011;15662;49.128;8.520;2023-11-19T06:33:51;0.20;;;0.20;;
28427;SDS011;15662;49.128;8.520;2023-11-19T06:36:19;0.28;;;0.28;;
28427;SDS011;15662;49.128;8.520;2023-11-19T06:38:46;0.30;;;0.28;;
28427;SDS011;15662;49.128;8.520;2023-11-19T06:41:14;0.50;;;0.50;;
28427;SDS011;15662;49.128;8.520;2023-11-19T06:43:42;0.20;;;0.20;;
28427;SDS011;15662;49.128;8.520;2023-11-19T06:46:16;0.20;;;0.20;;
28427;SDS011;15662;49.128;8.520;2023-11-19T06:48:45;0.93;;;0.30;;
28427;SDS011;15662;49.128;8.520;2023-11-19T06:51:13;0.30;;;0.30;;
28427;SDS011;15662;49.128;8.520;2023-11-19T06:53:42;0.30;;;0.30;;
28427;SDS011;15662;49.128;8.520;2023-11-19T06:56:21;0.28;;;0.25;;
28427;SDS011;15662;49.128;8.520;2023-11-19T06:58:50;0.30;;;0.30;;
28427;SDS011;15662;49.128;8.520;2023-11-19T07:01:18;0.82;;;0.22;;
28427;SDS011;15662;49.128;8.520;2023-11-19T07:03:47;0.20;;;0.20;;
28427;SDS011;15662;49.128;8.520;2023-11-19T07:06:16;0.20;;;0.20;;
28427;SDS011;15662;49.128;8.520;2023-11-19T07:08:44;0.20;;;0.20;;
28427;SDS011;15662;49.128;8.520;2023-11-19T07:11:12;0.10;;;0.10;;
28427;SDS011;15662;49.128;8.520;2023-11-19T07:13:42;0.30;;;0.30;;
28427;SDS011;15662;49.128;8.520;2023-11-19T07:16:10;0.32;;;0.30;;
28427;SDS011;15662;49.128;8.520;2023-11-19T07:18:38;0.30;;;0.30;;
28427;SDS011;15662;49.128;8.520;2023-11-19T07:21:06;0.30;;;0.30;;
28427;SDS011;15662;49.128;8.520;2023-11-19T07:23:37;1.40;;;0.30;;
28427;SDS011;15662;49.128;8.520;2023-11-19T07:26:05;0.30;;;0.30;;
28427;SDS011;15662;49.128;8.520;2023-11-19T07:28:37;1.60;;;0.40;;
28427;SDS011;15662;49.128;8.520;2023-11-19T07:31:07;0.38;;;0.30;;
28427;SDS011;15662;49.128;8.520;2023-11-19T07:33:35;0.52;;;0.25;;
28427;SDS011;15662;49.128;8.520;2023-11-19T07:36:03;0.20;;;0.20;;
28427;SDS011;15662;49.128;8.520;2023-11-19T07:38:31;0.20;;;0.20;;
28427;SDS011;15662;49.128;8.520;2023-11-19T07:40:59;0.30;;;0.30;;
28427;SDS011;15662;49.128;8.520;2023-11-19T07:43:27;0.28;;;0.20;;
28427;SDS011;15662;49.128;8.520;2023-11-19T07:45:54;0.20;;;0.20;;
28427;SDS011;15662;49.128;8.520;2023-11-19T07:48:22;0.30;;;0.30;;
28427;SDS011;15662;49.128;8.520;2023-11-19T07:50:52;0.47;;;0.40;;
28427;SDS011;15662;49.128;8.520;2023-11-19T07:53:20;0.40;;;0.40;;
28427;SDS011;15662;49.128;8.520;2023-11-19T07:55:48;0.35;;;0.32;;
28427;SDS011;15662;49.128;8.520;2023-11-19T07:58:16;0.40;;;0.40;;
28427;SDS011;15662;49.128;8.520;2023-11-19T08:00:43;0.43;;;0.43;;
28427;SDS011;15662;49.128;8.520;2023-11-19T08:03:11;0.40;;;0.40;;
28427;SDS011;15662;49.128;8.520;2023-11-19T08:05:39;1.95;;;0.35;;
28427;SDS011;15662;49.128;8.520;2023-11-19T08:08:07;0.25;;;0.25;;
28427;SDS011;15662;49.128;8.520;2023-11-19T08:10:35;0.25;;;0.25;;
28427;SDS011;15662;49.128;8.520;2023-11-19T08:13:03;0.75;;;0.50;;
28427;SDS011;15662;49.128;8.520;2023-11-19T08:15:31;0.32;;;0.30;;
28427;SDS011;15662;49.128;8.520;2023-11-19T08:17:59;0.20;;;0.20;;
28427;SDS011;15662;49.128;8.520;2023-11-19T08:20:27;0.32;;;0.32;;
28427;SDS011;15662;49.128;8.520;2023-11-19T08:22:55;0.68;;;0.38;;
28427;SDS011;15662;49.128;8.520;2023-11-19T08:25:22;1.27;;;0.65;;
28427;SDS011;15662;49.128;8.520;2023-11-19T08:27:50;0.30;;;0.30;;
28427;SDS011;15662;49.128;8.520;2023-11-19T08:30:18;0.30;;;0.30;;
28427;SDS011;15662;49.128;8.520;2023-11-19T08:32:46;0.52;;;0.40;;
28427;SDS011;15662;49.128;8.520;2023-11-19T08:35:14;0.57;;;0.40;;
28427;SDS011;15662;49.128;8.520;2023-11-19T08:37:43;0.95;;;0.40;;
28427;SDS011;15662;49.128;8.520;2023-11-19T08:40:12;0.60;;;0.50;;
28427;SDS011;15662;49.128;8.520;2023-11-19T08:45:11;0.57;;;0.57;;
28427;SDS011;15662;49.128;8.520;2023-11-19T08:47:39;0.30;;;0.30;;
28427;SDS011;15662;49.128;8.520;2023-11-19T08:50:08;2.13;;;0.35;;
28427;SDS011;15662;49.128;8.520;2023-11-19T08:52:36;1.10;;;0.50;;
28427;SDS011;15662;49.128;8.520;2023-11-19T08:55:04;0.90;;;0.90;;
28427;SDS011;15662;49.128;8.520;2023-11-19T08:57:33;0.50;;;0.50;;
28427;SDS011;15662;49.128;8.520;2023-11-19T09:00:00;0.50;;;0.50;;
28427;SDS011;15662;49.128;8.520;2023-11-19T09:02:30;0.35;;;0.35;;
28427;SDS011;15662;49.128;8.520;2023-11-19T09:04:59;0.63;;;0.40;;
28427;SDS011;15662;49.128;8.520;2023-11-19T09:07:27;1.52;;;0.30;;
28427;SDS011;15662;49.128;8.520;2023-11-19T09:09:55;0.40;;;0.40;;
28427;SDS011;15662;49.128;8.520;2023-11-19T09:12:23;0.60;;;0.30;;
28427;SDS011;15662;49.128;8.520;2023-11-19T09:14:50;1.88;;;0.50;;
28427;SDS011;15662;49.128;8.520;2023-11-19T09:17:18;0.60;;;0.60;;
28427;SDS011;15662;49.128;8.520;2023-11-19T09:19:46;0.55;;;0.50;;
28427;SDS011;15662;49.128;8.520;2023-11-19T09:22:14;0.60;;;0.60;;
28427;SDS011;15662;49.128;8.520;2023-11-19T09:24:42;0.60;;;0.52;;
28427;SDS011;15662;49.128;8.520;2023-11-19T09:27:11;0.45;;;0.30;;
28427;SDS011;15662;49.128;8.520;2023-11-19T09:29:39;0.22;;;0.22;;
28427;SDS011;15662;49.128;8.520;2023-11-19T09:32:07;0.47;;;0.40;;
28427;SDS011;15662;49.128;8.520;2023-11-19T09:34:35;1.75;;;0.40;;
28427;SDS011;15662;49.128;8.520;2023-11-19T09:37:03;1.38;;;0.60;;
28427;SDS011;15662;49.128;8.520;2023-11-19T09:39:30;0.70;;;0.70;;
28427;SDS011;15662;49.128;8.520;2023-11-19T09:41:58;0.90;;;0.80;;
28427;SDS011;15662;49.128;8.520;2023-11-19T09:44:26;2.67;;;1.67;;
28427;SDS011;15662;49.128;8.520;2023-11-19T09:46:55;1.40;;;1.00;;
28427;SDS011;15662;49.128;8.520;2023-11-19T09:49:25;0.65;;;0.65;;
28427;SDS011;15662;49.128;8.520;2023-11-19T09:51:57;0.40;;;0.40;;
28427;SDS011;15662;49.128;8.520;2023-11-19T09:54:25;1.25;;;0.30;;
28427;SDS011;15662;49.128;8.520;2023-11-19T09:56:53;0.80;;;0.73;;
28427;SDS011;15662;49.128;8.520;2023-11-19T09:59:30;1.30;;;1.13;;
28427;SDS011;15662;49.128;8.520;2023-11-19T10:01:59;0.93;;;0.82;;
28427;SDS011;15662;49.128;8.520;2023-11-19T10:04:29;2.88;;;0.88;;
28427;SDS011;15662;49.128;8.520;2023-11-19T10:06:59;1.52;;;0.85;;
28427;SDS011;15662;49.128;8.520;2023-11-19T10:09:27;1.10;;;0.60;;
28427;SDS011;15662;49.128;8.520;2023-11-19T10:11:55;0.82;;;0.52;;
28427;SDS011;15662;49.128;8.520;2023-11-19T10:14:23;0.70;;;0.70;;
28427;SDS011;15662;49.128;8.520;2023-11-19T10:16:51;0.85;;;0.60;;
28427;SDS011;15662;49.128;8.520;2023-11-19T10:19:19;1.17;;;0.70;;
28427;SDS011;15662;49.128;8.520;2023-11-19T10:21:48;0.85;;;0.40;;
28427;SDS011;15662;49.128;8.520;2023-11-19T10:24:16;0.63;;;0.43;;
28427;SDS011;15662;49.128;8.520;2023-11-19T10:26:58;0.40;;;0.40;;
28427;SDS011;15662;49.128;8.520;2023-11-19T10:29:30;0.50;;;0.47;;
28427;SDS011;15662;49.128;8.520;2023-11-19T10:31:58;1.92;;;0.40;;
28427;SDS011;15662;49.128;8.520;2023-11-19T10:34:46;0.40;;;0.40;;
28427;SDS011;15662;49.128;8.520;2023-11-19T10:40:10;1.35;;;0.50;;
28427;SDS011;15662;49.128;8.520;2023-11-19T10:42:38;0.68;;;0.43;;
28427;SDS011;15662;49.128;8.520;2023-11-19T10:45:21;0.50;;;0.50;;
28427;SDS011;15662;49.128;8.520;2023-11-19T10:47:53;1.08;;;1.00;;
28427;SDS011;15662;49.128;8.520;2023-11-19T10:50:22;4.05;;;1.30;;
28427;SDS011;15662;49.128;8.520;2023-11-19T10:52:55;1.10;;;1.00;;
28427;SDS011;15662;49.128;8.520;2023-11-19T10:55:29;0.85;;;0.82;;
28427;SDS011;15662;49.128;8.520;2023-11-19T10:58:02;1.27;;;1.05;;
28427;SDS011;15662;49.128;8.520;2023-11-19T11:00:47;1.17;;;0.90;;
28427;SDS011;15662;49.128;8.520;2023-11-19T11:03:30;1.30;;;0.90;;
28427;SDS011;15662;49.128;8.520;2023-11-19T11:06:06;0.80;;;0.80;;
28427;SDS011;15662;49.128;8.520;2023-11-19T11:08:36;0.57;;;0.55;;
28427;SDS011;15662;49.128;8.520;2023-11-19T11:11:07;1.42;;;0.77;;
28427;SDS011;15662;49.128;8.520;2023-11-19T11:13:35;0.90;;;0.55;;
28427;SDS011;15662;49.128;8.520;2023-11-19T11:16:07;1.20;;;0.70;;
28427;SDS011;15662;49.128;8.520;2023-11-19T11:18:36;2.28;;;0.90;;
28427;SDS011;15662;49.128;8.520;2023-11-19T11:37:46;0.98;;;0.52;;
28427;SDS011;15662;49.128;8.520;2023-11-19T11:40:20;0.88;;;0.68;;
28427;SDS011;15662;49.128;8.520;2023-11-19T11:42:50;1.38;;;0.60;;
28427;SDS011;15662;49.128;8.520;2023-11-19T11:45:19;1.05;;;0.80;;
28427;SDS011;15662;49.128;8.520;2023-11-19T11:48:08;1.67;;;0.60;;
28427;SDS011;15662;49.128;8.520;2023-11-19T11:50:47;2.63;;;0.88;;
28427;SDS011;15662;49.128;8.520;2023-11-19T11:53:25;2.05;;;0.63;;
28427;SDS011;15662;49.128;8.520;2023-11-19T11:55:53;1.75;;;0.55;;
28427;SDS011;15662;49.128;8.520;2023-11-19T11:58:29;0.73;;;0.60;;
28427;SDS011;15662;49.128;8.520;2023-11-19T12:01:00;1.17;;;0.65;;
28427;SDS011;15662;49.128;8.520;2023-11-19T12:03:30;1.20;;;0.70;;
28427;SDS011;15662;49.128;8.520;2023-11-19T12:05:59;0.70;;;0.70;;
28427;SDS011;15662;49.128;8.520;2023-11-19T12:08:28;1.15;;;0.80;;
28427;SDS011;15662;49.128;8.520;2023-11-19T12:10:57;0.70;;;0.70;;
28427;SDS011;15662;49.128;8.520;2023-11-19T12:13:42;1.10;;;1.00;;
28427;SDS011;15662;49.128;8.520;2023-11-19T12:16:25;1.17;;;0.95;;
28427;SDS011;15662;49.128;8.520;2023-11-19T12:18:56;1.25;;;0.90;;
28427;SDS011;15662;49.128;8.520;2023-11-19T12:21:31;1.25;;;0.68;;
28427;SDS011;15662;49.128;8.520;2023-11-19T12:24:00;1.40;;;0.68;;
28427;SDS011;15662;49.128;8.520;2023-11-19T12:26:35;1.05;;;0.47;;
28427;SDS011;15662;49.128;8.520;2023-11-19T12:29:04;0.50;;;0.50;;
28427;SDS011;15662;49.128;8.520;2023-11-19T12:31:35;0.82;;;0.50;;
28427;SDS011;15662;49.128;8.520;2023-11-19T12:34:07;2.33;;;0.70;;
28427;SDS011;15662;49.128;8.520;2023-11-19T12:36:39;2.30;;;0.90;;
28427;SDS011;15662;49.128;8.520;2023-11-19T12:39:08;3.78;;;0.73;;
28427;SDS011;15662;49.128;8.520;2023-11-19T12:41:48;0.75;;;0.50;;
28427;SDS011;15662;49.128;8.520;2023-11-19T12:44:18;3.38;;;0.75;;
28427;SDS011;15662;49.128;8.520;2023-11-19T12:46:45;0.93;;;0.52;;
28427;SDS011;15662;49.128;8.520;2023-11-19T12:49:13;2.15;;;0.65;;
28427;SDS011;15662;49.128;8.520;2023-11-19T12:51:41;0.90;;;0.50;;
28427;SDS011;15662;49.128;8.520;2023-11-19T12:54:09;1.33;;;0.60;;
28427;SDS011;15662;49.128;8.520;2023-11-19T12:56:37;1.23;;;0.70;;
28427;SDS011;15662;49.128;8.520;2023-11-19T12:59:11;2.88;;;0.70;;
28427;SDS011;15662;49.128;8.520;2023-11-19T13:01:56;1.42;;;0.65;;
28427;SDS011;15662;49.128;8.520;2023-11-19T13:04:28;2.05;;;0.70;;
28427;SDS011;15662;49.128;8.520;2023-11-19T13:07:00;1.08;;;0.50;;
28427;SDS011;15662;49.128;8.520;2023-11-19T13:09:32;1.00;;;0.70;;
28427;SDS011;15662;49.128;8.520;2023-11-19T13:12:11;2.95;;;0.80;;
28427;SDS011;15662;49.128;8.520;2023-11-19T13:14:41;2.30;;;0.52;;
28427;SDS011;15662;49.128;8.520;2023-11-19T13:17:14;2.05;;;0.50;;
28427;SDS011;15662;49.128;8.520;2023-11-19T13:19:42;2.33;;;0.55;;
28427;SDS011;15662;49.128;8.520;2023-11-19T13:22:10;1.38;;;0.43;;
28427;SDS011;15662;49.128;8.520;2023-11-19T13:24:38;1.25;;;0.60;;
28427;SDS011;15662;49.128;8.520;2023-11-19T13:27:07;1.38;;;0.65;;
28427;SDS011;15662;49.128;8.520;2023-11-19T13:29:35;2.00;;;0.60;;
28427;SDS011;15662;49.128;8.520;2023-11-19T13:32:03;1.50;;;0.77;;
28427;SDS011;15662;49.128;8.520;2023-11-19T13:34:32;2.88;;;1.05;;
28427;SDS011;15662;49.128;8.520;2023-11-19T13:37:00;2.20;;;0.70;;
28427;SDS011;15662;49.128;8.520;2023-11-19T13:39:28;1.77;;;0.70;;
28427;SDS011;15662;49.128;8.520;2023-11-19T13:41:56;0.95;;;0.70;;
28427;SDS011;15662;49.128;8.520;2023-11-19T13:44:27;1.88;;;0.80;;
28427;SDS011;15662;49.128;8.520;2023-11-19T13:46:55;1.67;;;0.90;;
28427;SDS011;15662;49.128;8.520;2023-11-19T13:49:22;1.20;;;1.00;;
28427;SDS011;15662;49.128;8.520;2023-11-19T13:51:51;2.00;;;0.95;;
28427;SDS011;15662;49.128;8.520;2023-11-19T13:54:21;1.77;;;0.75;;
28427;SDS011;15662;49.128;8.520;2023-11-19T13:56:50;1.35;;;0.82;;
28427;SDS011;15662;49.128;8.520;2023-11-19T14:01:49;0.50;;;0.50;;
28427;SDS011;15662;49.128;8.520;2023-11-19T14:04:16;2.72;;;0.68;;
28427;SDS011;15662;49.128;8.520;2023-11-19T14:06:45;1.00;;;0.50;;
28427;SDS011;15662;49.128;8.520;2023-11-19T14:09:13;0.47;;;0.45;;
28427;SDS011;15662;49.128;8.520;2023-11-19T14:11:40;1.75;;;0.70;;
28427;SDS011;15662;49.128;8.520;2023-11-19T14:14:09;1.15;;;0.65;;
28427;SDS011;15662;49.128;8.520;2023-11-19T14:16:37;1.58;;;0.80;;
28427;SDS011;15662;49.128;8.520;2023-11-19T14:19:05;0.77;;;0.50;;
28427;SDS011;15662;49.128;8.520;2023-11-19T14:21:33;1.02;;;0.60;;
28427;SDS011;15662;49.128;8.520;2023-11-19T14:24:01;1.10;;;0.60;;
28427;SDS011;15662;49.128;8.520;2023-11-19T14:26:29;1.00;;;0.57;;
28427;SDS011;15662;49.128;8.520;2023-11-19T14:28:56;1.20;;;0.60;;
28427;SDS011;15662;49.128;8.520;2023-11-19T14:31:27;2.30;;;0.60;;
28427;SDS011;15662;49.128;8.520;2023-11-19T14:33:56;2.50;;;1.05;;
28427;SDS011;15662;49.128;8.520;2023-11-19T14:36:24;1.85;;;1.00;;
28427;SDS011;15662;49.128;8.520;2023-11-19T14:38:53;1.83;;;0.85;;
28427;SDS011;15662;49.128;8.520;2023-11-19T14:41:21;1.38;;;0.90;;
28427;SDS011;15662;49.128;8.520;2023-11-19T14:43:49;1.38;;;0.68;;
28427;SDS011;15662;49.128;8.520;2023-11-19T14:46:16;1.08;;;0.80;;
28427;SDS011;15662;49.128;8.520;2023-11-19T14:48:44;1.35;;;0.93;;
28427;SDS011;15662;49.128;8.520;2023-11-19T14:51:12;2.22;;;1.00;;
28427;SDS011;15662;49.128;8.520;2023-11-19T14:53:40;0.93;;;0.68;;
28427;SDS011;15662;49.128;8.520;2023-11-19T14:56:10;0.75;;;0.63;;
28427;SDS011;15662;49.128;8.520;2023-11-19T14:58:40;1.77;;;0.70;;
28427;SDS011;15662;49.128;8.520;2023-11-19T15:01:11;2.40;;;0.60;;
28427;SDS011;15662;49.128;8.520;2023-11-19T15:03:40;1.55;;;0.80;;
28427;SDS011;15662;49.128;8.520;2023-11-19T15:06:10;1.50;;;0.73;;
28427;SDS011;15662;49.128;8.520;2023-11-19T15:08:38;1.92;;;0.85;;
28427;SDS011;15662;49.128;8.520;2023-11-19T15:11:06;5.38;;;0.88;;
28427;SDS011;15662;49.128;8.520;2023-11-19T15:13:36;1.58;;;0.80;;
28427;SDS011;15662;49.128;8.520;2023-11-19T15:16:05;0.73;;;0.60;;
28427;SDS011;15662;49.128;8.520;2023-11-19T15:18:33;0.95;;;0.57;;
28427;SDS011;15662;49.128;8.520;2023-11-19T15:21:01;1.65;;;0.70;;
28427;SDS011;15662;49.128;8.520;2023-11-19T15:23:29;1.15;;;0.55;;
28427;SDS011;15662;49.128;8.520;2023-11-19T15:25:57;3.83;;;0.70;;